createdAt,value
2023-03-21T00:01:56.722Z,98939.50
2023-03-21T00:04:33.204Z,98936.11
2023-03-21T00:07:07.743Z,98937.10
2023-03-21T00:09:37.787Z,98938.32
2023-03-21T00:12:10.197Z,98930.79
2023-03-21T00:14:39.631Z,98929.34
2023-03-21T00:17:11.335Z,98923.68
2023-03-21T00:19:41.773Z,98924.83
2023-03-21T00:22:11.475Z,98921.42
2023-03-21T00:24:41.559Z,98914.29
2023-03-21T00:27:38.334Z,98910.08
2023-03-21T00:30:00.070Z,98909.20
2023-03-21T00:32:30.066Z,98901.89
2023-03-21T00:35:16.575Z,98904.55
2023-03-21T00:37:48.608Z,98899.77
2023-03-21T00:40:29.172Z,98894.43
2023-03-21T00:43:00.787Z,98886.36
2023-03-21T00:45:30.157Z,98886.52
2023-03-21T00:47:59.696Z,98887.15
2023-03-21T00:50:29.030Z,98887.66
2023-03-21T00:52:59.043Z,98879.84
2023-03-21T00:55:28.026Z,98872.15
2023-03-21T00:58:02.138Z,98860.62
2023-03-21T01:00:33.727Z,98859.33
2023-03-21T01:03:23.287Z,98858.61
2023-03-21T01:06:07.926Z,98857.15
2023-03-21T01:08:51.896Z,98857.88
2023-03-21T01:11:26.146Z,98858.17
2023-03-21T01:14:07.172Z,98855.48
2023-03-21T01:16:41.877Z,98849.68
2023-03-21T01:19:25.055Z,98845.71
2023-03-21T01:21:58.769Z,98842.09
2023-03-21T01:24:28.622Z,98835.69
2023-03-21T01:26:57.878Z,98836.23
2023-03-21T01:29:27.514Z,98837.56
2023-03-21T01:31:57.039Z,98828.03
2023-03-21T01:34:26.754Z,98824.21
2023-03-21T01:36:56.971Z,98823.52
2023-03-21T01:39:26.815Z,98824.27
2023-03-21T01:41:56.131Z,98826.27
2023-03-21T01:44:25.542Z,98831.48
2023-03-21T01:47:12.457Z,98832.24
2023-03-21T01:49:46.824Z,98830.20
2023-03-21T01:52:35.340Z,98827.24
2023-03-21T01:55:12.233Z,98822.08
2023-03-21T01:58:02.105Z,98817.14
2023-03-21T02:00:34.747Z,98812.25
2023-03-21T02:03:15.305Z,98812.63
2023-03-21T02:06:03.424Z,98810.44
2023-03-21T02:08:39.598Z,98803.02
2023-03-21T02:11:10.578Z,98803.50
2023-03-21T02:13:39.887Z,98804.83
2023-03-21T02:16:30.906Z,98810.58
2023-03-21T02:19:29.599Z,98810.54
2023-03-21T02:22:38.058Z,98810.67
2023-03-21T02:25:39.510Z,98810.61
2023-03-21T02:28:25.442Z,98805.36
2023-03-21T02:30:54.776Z,98798.65
2023-03-21T02:34:02.096Z,98793.03
2023-03-21T02:36:49.420Z,98795.34
2023-03-21T02:39:24.082Z,98794.27
2023-03-21T02:42:08.388Z,98782.44
2023-03-21T02:44:46.881Z,98778.76
2023-03-21T02:47:26.212Z,98780.98
2023-03-21T02:50:16.657Z,98776.67
2023-03-21T02:52:48.820Z,98778.14
2023-03-21T02:55:22.907Z,98775.52
2023-03-21T02:57:54.697Z,98770.65
2023-03-21T03:00:27.772Z,98770.02
2023-03-21T03:03:07.832Z,98766.46
2023-03-21T03:05:49.789Z,98768.53
2023-03-21T03:09:01.841Z,98767.66
2023-03-21T03:11:38.699Z,98770.64
2023-03-21T03:14:46.435Z,98767.87
2023-03-21T03:17:18.529Z,98770.31
2023-03-21T03:20:06.975Z,98769.20
2023-03-21T03:22:47.133Z,98768.23
2023-03-21T03:25:32.619Z,98769.70
2023-03-21T03:28:10.664Z,98769.17
2023-03-21T03:30:46.570Z,98777.19
2023-03-21T03:33:23.936Z,98777.23
2023-03-21T03:36:04.828Z,98777.92
2023-03-21T03:38:37.450Z,98774.22
2023-03-21T03:41:15.857Z,98771.70
2023-03-21T03:43:53.984Z,98773.95
2023-03-21T03:46:29.461Z,98768.82
2023-03-21T03:49:06.642Z,98768.02
2023-03-21T03:51:47.634Z,98765.77
2023-03-21T03:54:22.952Z,98763.45
2023-03-21T03:56:52.953Z,98762.41
2023-03-21T03:59:25.680Z,98762.81
2023-03-21T04:01:54.714Z,98765.70
2023-03-21T04:04:29.019Z,98765.98
2023-03-21T04:06:59.286Z,98771.59
2023-03-21T04:09:43.173Z,98776.66
2023-03-21T04:12:14.095Z,98779.52
2023-03-21T04:14:46.034Z,98781.29
2023-03-21T04:17:17.054Z,98780.67
2023-03-21T04:19:46.868Z,98784.75
2023-03-21T04:22:16.041Z,98784.05
2023-03-21T04:24:45.354Z,98779.45
2023-03-21T04:27:15.298Z,98780.22
2023-03-21T04:29:44.742Z,98778.33
2023-03-21T04:32:25.042Z,98777.02
2023-03-21T04:34:54.521Z,98780.11
2023-03-21T04:37:28.524Z,98783.80
2023-03-21T04:39:57.187Z,98787.27
2023-03-21T04:42:26.416Z,98785.24
2023-03-21T04:44:55.386Z,98783.05
2023-03-21T04:47:24.352Z,98789.73
2023-03-21T04:49:54.044Z,98795.91
2023-03-21T04:52:25.262Z,98795.48
2023-03-21T04:54:54.287Z,98799.06
2023-03-21T04:57:22.932Z,98799.61
2023-03-21T04:59:51.711Z,98798.30
2023-03-21T05:02:20.215Z,98800.81
2023-03-21T05:04:49.035Z,98801.08
2023-03-21T05:07:17.778Z,98804.77
2023-03-21T05:09:46.707Z,98802.27
2023-03-21T05:12:16.172Z,98803.58
2023-03-21T05:14:45.005Z,98802.90
2023-03-21T05:17:15.934Z,98805.36
2023-03-21T05:19:45.018Z,98808.76
2023-03-21T05:22:14.635Z,98812.21
2023-03-21T05:24:43.371Z,98810.73
2023-03-21T05:27:14.737Z,98808.80
2023-03-21T05:29:43.678Z,98806.56
2023-03-21T05:32:12.587Z,98808.09
2023-03-21T05:34:41.777Z,98808.11
2023-03-21T05:37:10.964Z,98812.11
2023-03-21T05:39:40.187Z,98816.41
2023-03-21T05:42:10.031Z,98811.46
2023-03-21T05:44:40.951Z,98812.73
2023-03-21T05:47:10.431Z,98810.34
2023-03-21T05:49:40.126Z,98808.31
2023-03-21T05:52:09.596Z,98805.92
2023-03-21T05:54:38.985Z,98809.34
2023-03-21T05:57:08.051Z,98805.69
2023-03-21T05:59:37.344Z,98802.58
2023-03-21T06:02:06.543Z,98802.78
2023-03-21T06:04:35.579Z,98804.88
2023-03-21T06:07:04.691Z,98803.71
2023-03-21T06:09:34.959Z,98810.02
2023-03-21T06:12:04.303Z,98809.63
2023-03-21T06:14:33.290Z,98813.19
2023-03-21T06:17:01.774Z,98819.73
2023-03-21T06:19:30.625Z,98814.70
2023-03-21T06:21:59.629Z,98816.55
2023-03-21T06:24:29.076Z,98813.93
2023-03-21T06:26:57.954Z,98817.66
2023-03-21T06:29:26.982Z,98822.30
2023-03-21T06:31:56.379Z,98822.48
2023-03-21T06:34:27.011Z,98824.11
2023-03-21T06:36:55.937Z,98824.14
2023-03-21T06:39:25.408Z,98817.39
2023-03-21T06:41:54.516Z,98817.86
2023-03-21T06:44:25.170Z,98812.41
2023-03-21T06:46:54.110Z,98810.26
2023-03-21T06:49:23.566Z,98805.04
2023-03-21T06:51:52.844Z,98805.89
2023-03-21T06:54:22.350Z,98800.35
2023-03-21T06:56:51.735Z,98797.53
2023-03-21T06:59:21.275Z,98800.44
2023-03-21T07:01:50.304Z,98804.19
2023-03-21T07:04:19.034Z,98803.06
2023-03-21T07:06:48.084Z,98810.89
2023-03-21T07:09:18.588Z,98808.14
2023-03-21T07:11:48.216Z,98802.61
2023-03-21T07:14:17.369Z,98804.14
2023-03-21T07:16:46.435Z,98798.57
2023-03-21T07:19:16.350Z,98799.71
2023-03-21T07:21:45.559Z,98798.95
2023-03-21T07:24:15.604Z,98800.80
2023-03-21T07:26:44.788Z,98796.53
2023-03-21T07:29:13.878Z,98800.49
2023-03-21T07:31:43.208Z,98796.81
2023-03-21T07:34:12.878Z,98807.35
2023-03-21T07:36:41.751Z,98804.16
2023-03-21T07:39:10.836Z,98802.77
2023-03-21T07:41:39.949Z,98803.13
2023-03-21T07:44:09.190Z,98796.26
2023-03-21T07:46:37.954Z,98801.52
2023-03-21T07:49:09.601Z,98802.13
2023-03-21T07:51:38.926Z,98805.84
2023-03-21T07:54:08.310Z,98803.52
2023-03-21T07:56:38.077Z,98808.91
2023-03-21T07:59:07.969Z,98806.59
2023-03-21T08:01:37.821Z,98812.69
2023-03-21T08:04:07.499Z,98813.61
2023-03-21T08:06:37.521Z,98822.12
2023-03-21T08:09:08.174Z,98825.66
2023-03-21T08:11:37.731Z,98825.24
2023-03-21T08:14:07.834Z,98823.91
2023-03-21T08:16:36.824Z,98819.66
2023-03-21T08:19:05.759Z,98819.65
2023-03-21T08:21:34.489Z,98817.89
2023-03-21T08:24:03.199Z,98818.32
2023-03-21T08:26:32.689Z,98819.42
2023-03-21T08:29:01.658Z,98818.98
2023-03-21T08:31:30.899Z,98819.35
2023-03-21T08:33:59.725Z,98816.17
2023-03-21T08:36:28.998Z,98822.52
2023-03-21T08:39:05.705Z,98821.91
2023-03-21T08:41:37.076Z,98820.21
2023-03-21T08:44:07.718Z,98816.30
2023-03-21T08:46:37.414Z,98813.84
2023-03-21T08:49:06.843Z,98808.59
2023-03-21T08:51:38.405Z,98803.85
2023-03-21T08:54:08.583Z,98804.80
2023-03-21T08:56:37.909Z,98804.88
2023-03-21T08:59:07.348Z,98802.59
2023-03-21T09:01:36.365Z,98799.52
2023-03-21T09:04:08.214Z,98798.59
2023-03-21T09:06:38.469Z,98796.55
2023-03-21T09:09:09.405Z,98801.16
2023-03-21T09:11:39.488Z,98803.40
2023-03-21T09:14:12.243Z,98806.19
2023-03-21T09:16:41.954Z,98806.73
2023-03-21T09:19:12.549Z,98808.95
2023-03-21T09:21:41.861Z,98820.61
2023-03-21T09:24:13.282Z,98818.48
2023-03-21T09:26:44.553Z,98812.16
2023-03-21T09:29:13.845Z,98810.20
2023-03-21T09:31:44.011Z,98811.87
2023-03-21T09:34:16.187Z,98803.52
2023-03-21T09:36:45.220Z,98807.39
2023-03-21T09:39:14.847Z,98807.92
2023-03-21T09:42:01.767Z,98817.16
2023-03-21T09:44:44.190Z,98813.86
2023-03-21T09:47:29.673Z,98809.77
2023-03-21T09:50:14.110Z,98801.27
2023-03-21T09:53:11.149Z,98808.60
2023-03-21T09:55:41.987Z,98814.75
2023-03-21T09:58:33.974Z,98813.88
2023-03-21T10:01:27.870Z,98814.75
2023-03-21T10:04:01.562Z,98814.11
2023-03-21T10:06:32.407Z,98811.45
2023-03-21T10:09:07.774Z,98817.23
2023-03-21T10:12:15.316Z,98817.81
2023-03-21T10:14:58.473Z,98814.12
2023-03-21T10:17:33.097Z,98809.93
2023-03-21T10:20:13.765Z,98808.76
2023-03-21T10:22:46.698Z,98805.83
2023-03-21T10:25:19.128Z,98809.88
2023-03-21T10:27:51.288Z,98811.27
2023-03-21T10:30:36.690Z,98806.02
2023-03-21T10:33:13.088Z,98807.30
2023-03-21T10:35:47.359Z,98813.98
2023-03-21T10:38:20.818Z,98812.17
2023-03-21T10:40:51.219Z,98812.03
2023-03-21T10:43:35.900Z,98809.45
2023-03-21T10:46:28.091Z,98806.66
2023-03-21T10:48:57.785Z,98796.21
2023-03-21T10:51:32.594Z,98796.08
2023-03-21T10:54:07.082Z,98788.73
2023-03-21T10:56:44.824Z,98792.63
2023-03-21T10:59:21.925Z,98794.11
2023-03-21T11:01:56.566Z,98791.89
2023-03-21T11:04:30.348Z,98785.75
2023-03-21T11:07:04.117Z,98787.17
2023-03-21T11:09:46.861Z,98783.06
2023-03-21T11:12:34.155Z,98782.20
2023-03-21T11:15:15.819Z,98785.52
2023-03-21T11:17:46.143Z,98785.98
2023-03-21T11:20:22.321Z,98774.84
2023-03-21T11:22:56.461Z,98770.84
2023-03-21T11:25:44.187Z,98767.23
2023-03-21T11:28:17.931Z,98767.73
2023-03-21T11:30:55.257Z,98768.05
2023-03-21T11:33:29.848Z,98764.79
2023-03-21T11:36:28.284Z,98759.98
2023-03-21T11:39:00.320Z,98751.77
2023-03-21T11:41:32.205Z,98742.61
2023-03-21T11:44:03.438Z,98746.56
2023-03-21T11:46:40.481Z,98743.14
2023-03-21T11:49:11.128Z,98738.02
2023-03-21T11:51:50.336Z,98734.81
2023-03-21T11:54:49.291Z,98728.96
2023-03-21T11:57:28.085Z,98716.95
2023-03-21T12:00:23.210Z,98714.38
2023-03-21T12:03:10.002Z,98716.61
2023-03-21T12:05:52.269Z,98712.70
2023-03-21T12:08:30.514Z,98711.23
2023-03-21T12:11:12.133Z,98709.59
2023-03-21T12:14:23.622Z,98704.41
2023-03-21T12:17:25.024Z,98701.05
2023-03-21T12:20:06.272Z,98690.96
2023-03-21T12:22:42.422Z,98695.05
2023-03-21T12:25:30.010Z,98694.89
2023-03-21T12:28:32.571Z,98689.46
2023-03-21T12:31:23.954Z,98684.83
2023-03-21T12:34:39.162Z,98684.73
2023-03-21T12:37:29.997Z,98678.98
2023-03-21T12:40:37.120Z,98673.06
2023-03-21T12:43:25.407Z,98667.81
2023-03-21T12:46:01.859Z,98666.12
2023-03-21T12:48:47.934Z,98660.30
2023-03-21T12:51:23.514Z,98659.45
2023-03-21T12:54:24.109Z,98656.27
2023-03-21T12:56:53.180Z,98654.42
2023-03-21T12:59:38.725Z,98647.00
2023-03-21T13:02:39.682Z,98647.31
2023-03-21T13:05:29.730Z,98646.54
2023-03-21T13:08:08.790Z,98647.62
2023-03-21T13:10:42.718Z,98639.08
2023-03-21T13:13:14.653Z,98634.14
2023-03-21T13:16:19.098Z,98632.48
2023-03-21T13:19:27.246Z,98631.38
2023-03-21T13:22:00.247Z,98631.30
2023-03-21T13:24:33.695Z,98632.27
2023-03-21T13:27:08.558Z,98630.33
2023-03-21T13:29:50.945Z,98628.66
2023-03-21T13:32:32.591Z,98624.75
2023-03-21T13:35:14.177Z,98618.48
2023-03-21T13:37:53.139Z,98616.28
2023-03-21T13:40:29.805Z,98618.75
2023-03-21T13:43:04.158Z,98616.88
2023-03-21T13:45:35.448Z,98619.26
2023-03-21T13:48:26.082Z,98620.96
2023-03-21T13:51:04.832Z,98617.06
2023-03-21T13:53:38.682Z,98609.92
2023-03-21T13:56:12.586Z,98600.92
2023-03-21T13:58:44.965Z,98605.27
2023-03-21T14:02:03.488Z,98591.82
2023-03-21T14:04:41.906Z,98600.05
2023-03-21T14:07:17.178Z,98599.89
2023-03-21T14:09:53.543Z,98596.84
2023-03-21T14:12:29.182Z,98596.08
2023-03-21T14:15:16.297Z,98604.39
2023-03-21T14:17:55.940Z,98605.58
2023-03-21T14:20:34.398Z,98596.86
2023-03-21T14:23:07.225Z,98592.71
2023-03-21T14:25:46.703Z,98589.71
2023-03-21T14:28:21.539Z,98592.50
2023-03-21T14:30:55.221Z,98585.83
2023-03-21T14:33:38.271Z,98591.03
2023-03-21T14:36:14.866Z,98587.38
2023-03-21T14:38:45.261Z,98586.40
2023-03-21T14:41:27.126Z,98585.43
2023-03-21T14:44:44.135Z,98583.29
2023-03-21T14:47:30.389Z,98582.74
2023-03-21T14:50:01.819Z,98586.02
2023-03-21T14:52:34.851Z,98583.94
2023-03-21T14:55:14.411Z,98579.36
2023-03-21T14:57:43.851Z,98577.88
2023-03-21T15:00:24.036Z,98576.13
2023-03-21T15:02:55.994Z,98569.59
2023-03-21T15:05:38.607Z,98572.45
2023-03-21T15:08:23.256Z,98567.15
2023-03-21T15:11:07.224Z,98573.02
2023-03-21T15:13:55.420Z,98570.20
2023-03-21T15:16:25.239Z,98575.61
2023-03-21T15:18:54.831Z,98578.41
2023-03-21T15:21:43.491Z,98578.25
2023-03-21T15:24:23.214Z,98573.90
2023-03-21T15:27:05.221Z,98576.62
2023-03-21T15:29:37.479Z,98574.81
2023-03-21T15:32:18.720Z,98570.14
2023-03-21T15:34:48.806Z,98566.58
2023-03-21T15:37:29.380Z,98566.34
2023-03-21T15:40:17.998Z,98570.11
2023-03-21T15:42:47.677Z,98566.52
2023-03-21T15:45:25.190Z,98569.61
2023-03-21T15:48:17.166Z,98572.35
2023-03-21T15:50:56.181Z,98573.91
2023-03-21T15:53:26.467Z,98572.70
2023-03-21T15:56:02.784Z,98571.38
2023-03-21T15:58:38.019Z,98571.77
2023-03-21T16:01:13.915Z,98570.16
2023-03-21T16:03:49.538Z,98569.17
2023-03-21T16:06:22.553Z,98567.63
2023-03-21T16:09:07.446Z,98567.77
2023-03-21T16:11:49.186Z,98564.34
2023-03-21T16:14:20.622Z,98564.61
2023-03-21T16:16:51.045Z,98562.72
2023-03-21T16:19:21.056Z,98560.86
2023-03-21T16:21:50.680Z,98563.52
2023-03-21T16:24:20.575Z,98566.02
2023-03-21T16:26:54.675Z,98564.45
2023-03-21T16:29:25.108Z,98559.80
2023-03-21T16:31:55.476Z,98562.75
2023-03-21T16:34:24.864Z,98568.38
2023-03-21T16:36:55.010Z,98562.28
2023-03-21T16:39:27.512Z,98564.56
2023-03-21T16:41:57.452Z,98563.21
2023-03-21T16:44:26.907Z,98568.79
2023-03-21T16:46:55.990Z,98571.14
2023-03-21T16:49:27.535Z,98575.59
2023-03-21T16:51:57.951Z,98581.08
2023-03-21T16:54:27.490Z,98579.23
2023-03-21T16:57:00.000Z,98583.77
2023-03-21T16:59:29.426Z,98584.48
2023-03-21T17:01:59.203Z,98589.90
2023-03-21T17:04:29.073Z,98587.98
2023-03-21T17:06:59.415Z,98590.41
2023-03-21T17:09:30.216Z,98591.70
2023-03-21T17:12:00.224Z,98592.91
2023-03-21T17:14:29.368Z,98590.90
2023-03-21T17:16:59.545Z,98595.00
2023-03-21T17:19:30.375Z,98595.92
2023-03-21T17:22:00.505Z,98601.04
2023-03-21T17:24:29.830Z,98605.10
2023-03-21T17:27:01.141Z,98600.85
2023-03-21T17:29:31.521Z,98599.94
2023-03-21T17:32:00.666Z,98601.57
2023-03-21T17:34:30.076Z,98601.42
2023-03-21T17:36:59.664Z,98599.92
2023-03-21T17:39:29.248Z,98599.95
2023-03-21T17:41:58.364Z,98601.28
2023-03-21T17:44:28.184Z,98603.40
2023-03-21T17:46:57.586Z,98603.15
2023-03-21T17:49:27.024Z,98600.36
2023-03-21T17:51:56.259Z,98608.05
2023-03-21T17:54:25.144Z,98608.16
2023-03-21T17:56:56.140Z,98612.38
2023-03-21T17:59:26.879Z,98609.66
2023-03-21T18:01:57.055Z,98609.75
2023-03-21T18:04:27.712Z,98612.39
2023-03-21T18:07:01.091Z,98614.41
2023-03-21T18:09:30.988Z,98617.02
2023-03-21T18:12:02.142Z,98619.65
2023-03-21T18:14:34.906Z,98618.98
2023-03-21T18:17:04.352Z,98620.88
2023-03-21T18:19:34.775Z,98620.61
2023-03-21T18:22:05.213Z,98623.29
2023-03-21T18:24:36.358Z,98623.79
2023-03-21T18:27:07.175Z,98626.78
2023-03-21T18:30:22.840Z,98631.66
2023-03-21T18:32:28.683Z,98633.48
2023-03-21T18:35:02.426Z,98635.00
2023-03-21T18:37:32.117Z,98638.46
2023-03-21T18:40:02.168Z,98642.05
2023-03-21T18:42:31.941Z,98651.23
2023-03-21T18:45:04.681Z,98659.19
2023-03-21T18:47:34.632Z,98665.52
2023-03-21T18:50:14.226Z,98668.89
2023-03-21T18:52:44.009Z,98664.33
2023-03-21T18:55:15.426Z,98667.33
2023-03-21T18:57:45.772Z,98668.55
2023-03-21T19:00:18.175Z,98664.59
2023-03-21T19:02:50.762Z,98664.92
2023-03-21T19:05:23.062Z,98663.94
2023-03-21T19:07:53.877Z,98670.52
2023-03-21T19:10:24.819Z,98672.39
2023-03-21T19:12:55.468Z,98673.27
2023-03-21T19:15:25.504Z,98672.08
2023-03-21T19:20:47.887Z,98677.11
2023-03-21T19:23:21.834Z,98678.52
2023-03-21T19:25:51.109Z,98683.14
2023-03-21T19:28:20.338Z,98681.42
2023-03-21T19:30:50.861Z,98682.30
2023-03-21T19:33:21.256Z,98686.45
2023-03-21T19:36:08.893Z,98691.81
2023-03-21T19:38:40.530Z,98691.73
2023-03-21T19:41:09.604Z,98692.66
2023-03-21T19:43:40.161Z,98697.52
2023-03-21T19:46:11.754Z,98696.52
2023-03-21T19:48:44.027Z,98693.31
2023-03-21T19:51:27.592Z,98693.19
2023-03-21T19:54:03.723Z,98697.63
2023-03-21T19:56:34.542Z,98698.90
2023-03-21T19:59:05.365Z,98702.85
2023-03-21T20:01:35.518Z,98705.20
2023-03-21T20:04:05.619Z,98709.48
2023-03-21T20:06:36.049Z,98712.84
2023-03-21T20:09:49.627Z,98708.34
2023-03-21T20:12:01.301Z,98710.76
2023-03-21T20:14:30.563Z,98708.48
2023-03-21T20:17:00.322Z,98710.64
2023-03-21T20:19:29.738Z,98714.58
2023-03-21T20:22:02.714Z,98709.99
2023-03-21T20:24:31.950Z,98715.48
2023-03-21T20:27:01.207Z,98712.69
2023-03-21T20:30:08.238Z,98720.54
2023-03-21T20:32:21.841Z,98723.36
2023-03-21T20:34:59.478Z,98715.96
2023-03-21T20:37:35.500Z,98718.60
2023-03-21T20:40:10.522Z,98718.93
2023-03-21T20:42:43.577Z,98717.77
2023-03-21T20:45:16.779Z,98718.61
2023-03-21T20:47:47.593Z,98718.48
2023-03-21T20:50:22.262Z,98719.95
2023-03-21T20:53:06.430Z,98722.03
2023-03-21T20:55:37.264Z,98722.08
2023-03-21T20:58:27.190Z,98720.45
2023-03-21T21:01:00.364Z,98720.00
2023-03-21T21:03:29.694Z,98718.95
2023-03-21T21:06:00.293Z,98717.77
2023-03-21T21:08:31.033Z,98721.22
2023-03-21T21:11:56.637Z,98727.21
2023-03-21T21:13:49.941Z,98732.16
2023-03-21T21:16:19.457Z,98732.69
2023-03-21T21:18:49.733Z,98732.90
2023-03-21T21:21:18.789Z,98734.35
2023-03-21T21:23:48.877Z,98740.80
2023-03-21T21:26:18.081Z,98740.57
2023-03-21T21:28:48.343Z,98741.88
2023-03-21T21:31:19.488Z,98742.82
2023-03-21T21:33:50.520Z,98746.04
2023-03-21T21:36:19.586Z,98745.51
2023-03-21T21:38:49.767Z,98739.05
2023-03-21T21:41:21.836Z,98739.11
2023-03-21T21:43:51.592Z,98739.17
2023-03-21T21:46:20.855Z,98739.71
2023-03-21T21:48:50.143Z,98741.61
2023-03-21T21:51:26.878Z,98744.47
2023-03-21T21:53:57.589Z,98745.67
2023-03-21T21:56:32.880Z,98745.99
2023-03-21T21:59:03.118Z,98750.33
2023-03-21T22:01:39.563Z,98749.45
2023-03-21T22:04:11.982Z,98752.56
2023-03-21T22:06:43.376Z,98753.26
2023-03-21T22:09:14.645Z,98749.05
2023-03-21T22:11:44.025Z,98742.41
2023-03-21T22:14:13.963Z,98738.11
2023-03-21T22:16:44.867Z,98736.84
2023-03-21T22:19:15.024Z,98734.57
2023-03-21T22:21:45.919Z,98731.71
2023-03-21T22:24:16.240Z,98728.27
2023-03-21T22:26:45.912Z,98727.70
2023-03-21T22:29:14.943Z,98729.30
2023-03-21T22:31:44.695Z,98733.44
2023-03-21T22:34:14.103Z,98732.61
2023-03-21T22:36:47.517Z,98729.30
2023-03-21T22:39:21.742Z,98726.35
2023-03-21T22:41:50.950Z,98727.73
2023-03-21T22:44:19.887Z,98726.11
2023-03-21T22:46:48.753Z,98727.27
2023-03-21T22:49:17.657Z,98728.84
2023-03-21T22:51:46.927Z,98735.55
2023-03-21T22:54:15.769Z,98739.61
2023-03-21T22:56:45.964Z,98740.30
2023-03-21T22:59:16.710Z,98745.61
2023-03-21T23:01:46.418Z,98745.52
2023-03-21T23:04:16.660Z,98742.35
2023-03-21T23:06:46.673Z,98745.39
2023-03-21T23:09:16.776Z,98752.50
2023-03-21T23:11:49.655Z,98754.91
2023-03-21T23:14:21.469Z,98752.31
2023-03-21T23:17:00.411Z,98746.35
2023-03-21T23:19:29.790Z,98742.15
2023-03-21T23:21:59.790Z,98743.33
2023-03-21T23:24:29.064Z,98745.08
2023-03-21T23:26:58.455Z,98742.45
2023-03-21T23:29:27.964Z,98740.80
2023-03-21T23:31:57.015Z,98738.92
2023-03-21T23:34:26.065Z,98741.30
2023-03-21T23:36:54.839Z,98745.41
2023-03-21T23:39:23.627Z,98744.17
2023-03-21T23:41:52.496Z,98740.92
2023-03-21T23:44:21.529Z,98745.23
2023-03-21T23:46:50.253Z,98741.38
2023-03-21T23:49:19.409Z,98745.15
2023-03-21T23:51:48.192Z,98745.20
2023-03-21T23:54:17.386Z,98746.35
2023-03-21T23:56:46.348Z,98749.27
2023-03-21T23:59:15.406Z,98747.73
